sensor_id;sensor_type;location;lat;lon;timestamp;P1;durP1;ratioP1;P2;durP2;ratioP2
69730;SDS011;56996;48.138;11.538;2022-11-20T00:01:12;5.60;;;1.70;;
69730;SDS011;56996;48.138;11.538;2022-11-20T00:03:40;5.90;;;1.70;;
69730;SDS011;56996;48.138;11.538;2022-11-20T00:06:10;5.50;;;1.70;;
69730;SDS011;56996;48.138;11.538;2022-11-20T00:08:38;5.70;;;1.50;;
69730;SDS011;56996;48.138;11.538;2022-11-20T00:11:06;5.70;;;1.70;;
69730;SDS011;56996;48.138;11.538;2022-11-20T00:13:41;5.30;;;1.40;;
69730;SDS011;56996;48.138;11.538;2022-11-20T00:16:11;4.20;;;1.10;;
69730;SDS011;56996;48.138;11.538;2022-11-20T00:18:38;5.70;;;1.60;;
69730;SDS011;56996;48.138;11.538;2022-11-20T00:21:19;5.90;;;1.70;;
69730;SDS011;56996;48.138;11.538;2022-11-20T00:23:52;4.70;;;1.50;;
69730;SDS011;56996;48.138;11.538;2022-11-20T00:26:23;4.90;;;1.50;;
69730;SDS011;56996;48.138;11.538;2022-11-20T00:28:57;6.00;;;1.70;;
69730;SDS011;56996;48.138;11.538;2022-11-20T00:31:25;6.40;;;1.60;;
69730;SDS011;56996;48.138;11.538;2022-11-20T00:33:53;5.60;;;1.60;;
69730;SDS011;56996;48.138;11.538;2022-11-20T00:36:23;4.90;;;1.50;;
69730;SDS011;56996;48.138;11.538;2022-11-20T00:38:56;5.40;;;1.70;;
69730;SDS011;56996;48.138;11.538;2022-11-20T00:41:24;5.90;;;2.00;;
69730;SDS011;56996;48.138;11.538;2022-11-20T00:43:53;5.80;;;1.70;;
69730;SDS011;56996;48.138;11.538;2022-11-20T00:46:24;5.90;;;1.80;;
69730;SDS011;56996;48.138;11.538;2022-11-20T00:48:53;5.70;;;1.80;;
69730;SDS011;56996;48.138;11.538;2022-11-20T00:51:21;5.60;;;1.50;;
69730;SDS011;56996;48.138;11.538;2022-11-20T00:53:51;6.40;;;1.80;;
69730;SDS011;56996;48.138;11.538;2022-11-20T00:56:19;7.00;;;2.10;;
69730;SDS011;56996;48.138;11.538;2022-11-20T00:58:47;5.40;;;1.80;;
69730;SDS011;56996;48.138;11.538;2022-11-20T01:01:23;5.30;;;1.70;;
69730;SDS011;56996;48.138;11.538;2022-11-20T01:03:54;6.40;;;1.70;;
69730;SDS011;56996;48.138;11.538;2022-11-20T01:06:22;7.00;;;1.80;;
69730;SDS011;56996;48.138;11.538;2022-11-20T01:08:53;5.80;;;1.70;;
69730;SDS011;56996;48.138;11.538;2022-11-20T01:11:30;5.50;;;1.80;;
69730;SDS011;56996;48.138;11.538;2022-11-20T01:13:59;5.90;;;1.90;;
69730;SDS011;56996;48.138;11.538;2022-11-20T01:16:36;5.90;;;1.80;;
69730;SDS011;56996;48.138;11.538;2022-11-20T01:19:07;5.10;;;1.70;;
69730;SDS011;56996;48.138;11.538;2022-11-20T01:21:44;7.30;;;1.90;;
69730;SDS011;56996;48.138;11.538;2022-11-20T01:24:14;4.20;;;0.90;;
69730;SDS011;56996;48.138;11.538;2022-11-20T01:26:43;5.00;;;1.60;;
69730;SDS011;56996;48.138;11.538;2022-11-20T01:29:17;5.60;;;2.00;;
69730;SDS011;56996;48.138;11.538;2022-11-20T01:31:49;5.90;;;1.80;;
69730;SDS011;56996;48.138;11.538;2022-11-20T01:34:19;5.60;;;1.80;;
69730;SDS011;56996;48.138;11.538;2022-11-20T01:36:47;5.80;;;1.80;;
69730;SDS011;56996;48.138;11.538;2022-11-20T01:39:20;5.80;;;1.90;;
69730;SDS011;56996;48.138;11.538;2022-11-20T01:41:50;5.90;;;1.90;;
69730;SDS011;56996;48.138;11.538;2022-11-20T01:47:27;5.20;;;1.80;;
69730;SDS011;56996;48.138;11.538;2022-11-20T01:50:23;5.10;;;1.60;;
69730;SDS011;56996;48.138;11.538;2022-11-20T01:52:56;5.50;;;1.80;;
69730;SDS011;56996;48.138;11.538;2022-11-20T01:55:31;4.90;;;1.70;;
69730;SDS011;56996;48.138;11.538;2022-11-20T01:58:01;6.50;;;1.70;;
69730;SDS011;56996;48.138;11.538;2022-11-20T02:00:29;6.40;;;2.00;;
69730;SDS011;56996;48.138;11.538;2022-11-20T02:03:07;6.20;;;2.00;;
69730;SDS011;56996;48.138;11.538;2022-11-20T02:08:21;5.40;;;1.60;;
69730;SDS011;56996;48.138;11.538;2022-11-20T02:10:48;4.90;;;1.60;;
69730;SDS011;56996;48.138;11.538;2022-11-20T02:13:15;6.10;;;1.90;;
69730;SDS011;56996;48.138;11.538;2022-11-20T02:16:02;6.50;;;1.80;;
69730;SDS011;56996;48.138;11.538;2022-11-20T02:18:29;6.20;;;1.90;;
69730;SDS011;56996;48.138;11.538;2022-11-20T02:21:11;5.90;;;1.90;;
69730;SDS011;56996;48.138;11.538;2022-11-20T02:23:55;6.50;;;1.90;;
69730;SDS011;56996;48.138;11.538;2022-11-20T02:26:24;5.90;;;1.70;;
69730;SDS011;56996;48.138;11.538;2022-11-20T02:28:51;5.40;;;1.80;;
69730;SDS011;56996;48.138;11.538;2022-11-20T02:31:18;5.90;;;1.70;;
69730;SDS011;56996;48.138;11.538;2022-11-20T02:33:45;6.30;;;1.80;;
69730;SDS011;56996;48.138;11.538;2022-11-20T02:36:15;5.20;;;1.60;;
69730;SDS011;56996;48.138;11.538;2022-11-20T02:38:42;6.10;;;1.90;;
69730;SDS011;56996;48.138;11.538;2022-11-20T02:41:09;6.50;;;2.00;;
69730;SDS011;56996;48.138;11.538;2022-11-20T02:43:36;5.80;;;2.00;;
69730;SDS011;56996;48.138;11.538;2022-11-20T02:46:03;6.10;;;1.50;;
69730;SDS011;56996;48.138;11.538;2022-11-20T02:48:29;5.90;;;2.00;;
69730;SDS011;56996;48.138;11.538;2022-11-20T02:50:59;8.00;;;2.30;;
69730;SDS011;56996;48.138;11.538;2022-11-20T02:53:26;6.00;;;2.00;;
69730;SDS011;56996;48.138;11.538;2022-11-20T02:55:53;6.20;;;2.10;;
69730;SDS011;56996;48.138;11.538;2022-11-20T02:58:20;5.70;;;1.70;;
69730;SDS011;56996;48.138;11.538;2022-11-20T03:00:46;6.50;;;1.70;;
69730;SDS011;56996;48.138;11.538;2022-11-20T03:03:13;6.30;;;2.10;;
69730;SDS011;56996;48.138;11.538;2022-11-20T03:05:39;5.50;;;1.90;;
69730;SDS011;56996;48.138;11.538;2022-11-20T03:08:06;5.60;;;1.90;;
69730;SDS011;56996;48.138;11.538;2022-11-20T03:10:33;4.90;;;1.70;;
69730;SDS011;56996;48.138;11.538;2022-11-20T03:13:00;7.80;;;2.00;;
69730;SDS011;56996;48.138;11.538;2022-11-20T03:15:29;5.30;;;1.50;;
69730;SDS011;56996;48.138;11.538;2022-11-20T03:17:56;4.90;;;1.60;;
69730;SDS011;56996;48.138;11.538;2022-11-20T03:20:23;5.70;;;1.50;;
69730;SDS011;56996;48.138;11.538;2022-11-20T03:22:50;4.80;;;1.60;;
69730;SDS011;56996;48.138;11.538;2022-11-20T03:25:17;6.90;;;1.80;;
69730;SDS011;56996;48.138;11.538;2022-11-20T03:27:43;5.90;;;1.90;;
69730;SDS011;56996;48.138;11.538;2022-11-20T03:30:10;5.50;;;1.90;;
69730;SDS011;56996;48.138;11.538;2022-11-20T03:32:37;7.10;;;1.90;;
69730;SDS011;56996;48.138;11.538;2022-11-20T03:35:04;5.30;;;1.80;;
69730;SDS011;56996;48.138;11.538;2022-11-20T03:37:32;6.10;;;1.90;;
69730;SDS011;56996;48.138;11.538;2022-11-20T03:39:58;7.30;;;2.10;;
69730;SDS011;56996;48.138;11.538;2022-11-20T03:42:25;5.20;;;1.80;;
69730;SDS011;56996;48.138;11.538;2022-11-20T03:45:20;5.30;;;1.80;;
69730;SDS011;56996;48.138;11.538;2022-11-20T03:47:46;7.50;;;2.00;;
69730;SDS011;56996;48.138;11.538;2022-11-20T03:50:14;5.70;;;1.90;;
69730;SDS011;56996;48.138;11.538;2022-11-20T03:52:41;6.40;;;1.80;;
69730;SDS011;56996;48.138;11.538;2022-11-20T03:55:08;5.50;;;1.80;;
69730;SDS011;56996;48.138;11.538;2022-11-20T03:57:35;5.60;;;1.90;;
69730;SDS011;56996;48.138;11.538;2022-11-20T04:00:04;6.20;;;2.00;;
69730;SDS011;56996;48.138;11.538;2022-11-20T04:02:31;6.20;;;1.80;;
69730;SDS011;56996;48.138;11.538;2022-11-20T04:04:58;5.70;;;1.80;;
69730;SDS011;56996;48.138;11.538;2022-11-20T04:07:25;6.10;;;1.70;;
69730;SDS011;56996;48.138;11.538;2022-11-20T04:09:51;5.90;;;2.00;;
69730;SDS011;56996;48.138;11.538;2022-11-20T04:12:18;5.00;;;1.50;;
69730;SDS011;56996;48.138;11.538;2022-11-20T04:14:45;5.70;;;1.70;;
69730;SDS011;56996;48.138;11.538;2022-11-20T04:17:11;6.40;;;2.10;;
69730;SDS011;56996;48.138;11.538;2022-11-20T04:19:38;5.90;;;2.10;;
69730;SDS011;56996;48.138;11.538;2022-11-20T04:22:05;5.40;;;1.80;;
69730;SDS011;56996;48.138;11.538;2022-11-20T04:24:31;6.10;;;1.80;;
69730;SDS011;56996;48.138;11.538;2022-11-20T04:26:58;5.20;;;2.00;;
69730;SDS011;56996;48.138;11.538;2022-11-20T04:29:24;6.40;;;1.90;;
69730;SDS011;56996;48.138;11.538;2022-11-20T04:31:51;4.90;;;1.50;;
69730;SDS011;56996;48.138;11.538;2022-11-20T04:34:18;5.40;;;1.60;;
69730;SDS011;56996;48.138;11.538;2022-11-20T04:36:44;6.30;;;1.80;;
69730;SDS011;56996;48.138;11.538;2022-11-20T04:39:12;6.00;;;1.90;;
69730;SDS011;56996;48.138;11.538;2022-11-20T04:41:42;5.90;;;1.70;;
69730;SDS011;56996;48.138;11.538;2022-11-20T04:44:09;6.10;;;2.10;;
69730;SDS011;56996;48.138;11.538;2022-11-20T04:46:41;5.90;;;1.70;;
69730;SDS011;56996;48.138;11.538;2022-11-20T04:49:10;5.10;;;1.70;;
69730;SDS011;56996;48.138;11.538;2022-11-20T04:51:38;5.70;;;1.80;;
69730;SDS011;56996;48.138;11.538;2022-11-20T04:54:04;5.50;;;1.90;;
69730;SDS011;56996;48.138;11.538;2022-11-20T04:56:31;6.10;;;1.90;;
69730;SDS011;56996;48.138;11.538;2022-11-20T04:59:01;5.90;;;2.10;;
69730;SDS011;56996;48.138;11.538;2022-11-20T05:01:29;6.40;;;2.10;;
69730;SDS011;56996;48.138;11.538;2022-11-20T05:03:56;7.20;;;2.40;;
69730;SDS011;56996;48.138;11.538;2022-11-20T05:06:23;7.20;;;2.50;;
69730;SDS011;56996;48.138;11.538;2022-11-20T05:08:50;6.20;;;2.50;;
69730;SDS011;56996;48.138;11.538;2022-11-20T05:11:19;6.00;;;2.10;;
69730;SDS011;56996;48.138;11.538;2022-11-20T05:13:47;5.70;;;2.00;;
69730;SDS011;56996;48.138;11.538;2022-11-20T05:16:17;7.70;;;2.40;;
69730;SDS011;56996;48.138;11.538;2022-11-20T05:18:46;5.80;;;2.00;;
69730;SDS011;56996;48.138;11.538;2022-11-20T05:21:14;6.10;;;2.10;;
69730;SDS011;56996;48.138;11.538;2022-11-20T05:23:42;6.60;;;2.50;;
69730;SDS011;56996;48.138;11.538;2022-11-20T05:26:14;5.90;;;2.00;;
69730;SDS011;56996;48.138;11.538;2022-11-20T05:28:42;5.80;;;1.80;;
69730;SDS011;56996;48.138;11.538;2022-11-20T05:31:14;6.20;;;2.10;;
69730;SDS011;56996;48.138;11.538;2022-11-20T05:33:51;6.10;;;2.00;;
69730;SDS011;56996;48.138;11.538;2022-11-20T05:36:17;5.80;;;1.90;;
69730;SDS011;56996;48.138;11.538;2022-11-20T05:38:44;5.90;;;2.10;;
69730;SDS011;56996;48.138;11.538;2022-11-20T05:41:18;6.70;;;2.00;;
69730;SDS011;56996;48.138;11.538;2022-11-20T05:43:47;7.60;;;2.50;;
69730;SDS011;56996;48.138;11.538;2022-11-20T05:46:17;6.40;;;2.40;;
69730;SDS011;56996;48.138;11.538;2022-11-20T05:48:53;5.80;;;2.00;;
69730;SDS011;56996;48.138;11.538;2022-11-20T05:51:20;7.60;;;2.10;;
69730;SDS011;56996;48.138;11.538;2022-11-20T05:53:47;6.80;;;2.10;;
69730;SDS011;56996;48.138;11.538;2022-11-20T05:56:19;5.70;;;1.90;;
69730;SDS011;56996;48.138;11.538;2022-11-20T05:58:47;6.60;;;2.20;;
69730;SDS011;56996;48.138;11.538;2022-11-20T06:01:20;6.20;;;2.20;;
69730;SDS011;56996;48.138;11.538;2022-11-20T06:03:49;7.60;;;2.00;;
69730;SDS011;56996;48.138;11.538;2022-11-20T06:06:19;6.90;;;2.10;;
69730;SDS011;56996;48.138;11.538;2022-11-20T06:08:46;6.40;;;1.90;;
69730;SDS011;56996;48.138;11.538;2022-11-20T06:11:13;6.40;;;2.20;;
69730;SDS011;56996;48.138;11.538;2022-11-20T06:13:41;8.10;;;2.60;;
69730;SDS011;56996;48.138;11.538;2022-11-20T06:16:09;8.50;;;2.20;;
69730;SDS011;56996;48.138;11.538;2022-11-20T06:18:36;5.40;;;1.90;;
69730;SDS011;56996;48.138;11.538;2022-11-20T06:21:07;5.90;;;2.00;;
69730;SDS011;56996;48.138;11.538;2022-11-20T06:23:35;6.90;;;2.00;;
69730;SDS011;56996;48.138;11.538;2022-11-20T06:26:05;5.50;;;1.60;;
69730;SDS011;56996;48.138;11.538;2022-11-20T06:28:33;6.00;;;1.80;;
69730;SDS011;56996;48.138;11.538;2022-11-20T06:31:00;5.50;;;1.80;;
69730;SDS011;56996;48.138;11.538;2022-11-20T06:33:28;5.60;;;1.90;;
69730;SDS011;56996;48.138;11.538;2022-11-20T06:35:59;5.90;;;1.70;;
69730;SDS011;56996;48.138;11.538;2022-11-20T06:38:34;7.70;;;1.60;;
69730;SDS011;56996;48.138;11.538;2022-11-20T06:41:01;7.50;;;1.90;;
69730;SDS011;56996;48.138;11.538;2022-11-20T06:43:28;4.80;;;1.40;;
69730;SDS011;56996;48.138;11.538;2022-11-20T06:45:57;5.10;;;1.60;;
69730;SDS011;56996;48.138;11.538;2022-11-20T06:48:28;4.60;;;1.30;;
69730;SDS011;56996;48.138;11.538;2022-11-20T06:50:55;5.00;;;1.50;;
69730;SDS011;56996;48.138;11.538;2022-11-20T06:53:23;6.20;;;1.70;;
69730;SDS011;56996;48.138;11.538;2022-11-20T06:55:51;13.60;;;4.40;;
69730;SDS011;56996;48.138;11.538;2022-11-20T06:58:18;8.00;;;2.10;;
69730;SDS011;56996;48.138;11.538;2022-11-20T07:00:45;4.50;;;1.30;;
69730;SDS011;56996;48.138;11.538;2022-11-20T07:03:12;5.30;;;1.50;;
69730;SDS011;56996;48.138;11.538;2022-11-20T07:05:39;5.60;;;1.40;;
69730;SDS011;56996;48.138;11.538;2022-11-20T07:08:06;5.10;;;1.40;;
69730;SDS011;56996;48.138;11.538;2022-11-20T07:10:33;4.50;;;1.20;;
69730;SDS011;56996;48.138;11.538;2022-11-20T07:13:00;4.60;;;1.10;;
69730;SDS011;56996;48.138;11.538;2022-11-20T07:15:26;4.40;;;1.10;;
69730;SDS011;56996;48.138;11.538;2022-11-20T07:17:53;4.90;;;1.20;;
69730;SDS011;56996;48.138;11.538;2022-11-20T07:20:20;5.40;;;1.20;;
69730;SDS011;56996;48.138;11.538;2022-11-20T07:22:53;2.90;;;0.70;;
69730;SDS011;56996;48.138;11.538;2022-11-20T07:25:27;4.50;;;1.10;;
69730;SDS011;56996;48.138;11.538;2022-11-20T07:27:58;4.40;;;1.30;;
69730;SDS011;56996;48.138;11.538;2022-11-20T07:30:27;5.00;;;1.40;;
69730;SDS011;56996;48.138;11.538;2022-11-20T07:32:55;5.80;;;1.50;;
69730;SDS011;56996;48.138;11.538;2022-11-20T07:35:23;3.90;;;1.00;;
69730;SDS011;56996;48.138;11.538;2022-11-20T07:37:51;6.20;;;1.80;;
69730;SDS011;56996;48.138;11.538;2022-11-20T07:40:18;6.20;;;1.70;;
69730;SDS011;56996;48.138;11.538;2022-11-20T07:42:52;4.60;;;1.30;;
69730;SDS011;56996;48.138;11.538;2022-11-20T07:45:22;5.00;;;1.60;;
69730;SDS011;56996;48.138;11.538;2022-11-20T07:47:49;6.50;;;1.60;;
69730;SDS011;56996;48.138;11.538;2022-11-20T07:50:17;4.60;;;1.50;;
69730;SDS011;56996;48.138;11.538;2022-11-20T07:52:44;6.10;;;2.00;;
69730;SDS011;56996;48.138;11.538;2022-11-20T07:55:11;5.80;;;1.80;;
69730;SDS011;56996;48.138;11.538;2022-11-20T07:57:38;5.70;;;1.60;;
69730;SDS011;56996;48.138;11.538;2022-11-20T08:00:06;5.70;;;1.60;;
69730;SDS011;56996;48.138;11.538;2022-11-20T08:02:40;5.40;;;1.70;;
69730;SDS011;56996;48.138;11.538;2022-11-20T08:05:10;6.80;;;2.50;;
69730;SDS011;56996;48.138;11.538;2022-11-20T08:07:38;5.90;;;1.40;;
69730;SDS011;56996;48.138;11.538;2022-11-20T08:10:07;6.00;;;1.80;;
69730;SDS011;56996;48.138;11.538;2022-11-20T08:12:35;5.10;;;1.60;;
69730;SDS011;56996;48.138;11.538;2022-11-20T08:15:21;5.80;;;1.80;;
69730;SDS011;56996;48.138;11.538;2022-11-20T08:17:48;5.60;;;1.60;;
69730;SDS011;56996;48.138;11.538;2022-11-20T08:20:34;6.30;;;1.90;;
69730;SDS011;56996;48.138;11.538;2022-11-20T08:23:03;5.40;;;1.60;;
69730;SDS011;56996;48.138;11.538;2022-11-20T08:25:33;5.40;;;1.70;;
69730;SDS011;56996;48.138;11.538;2022-11-20T08:28:03;5.30;;;1.50;;
69730;SDS011;56996;48.138;11.538;2022-11-20T08:30:45;5.30;;;1.70;;
69730;SDS011;56996;48.138;11.538;2022-11-20T08:33:12;5.60;;;1.90;;
69730;SDS011;56996;48.138;11.538;2022-11-20T08:35:38;6.00;;;1.80;;
69730;SDS011;56996;48.138;11.538;2022-11-20T08:38:08;6.30;;;1.60;;
69730;SDS011;56996;48.138;11.538;2022-11-20T08:40:35;5.90;;;1.70;;
69730;SDS011;56996;48.138;11.538;2022-11-20T08:43:02;5.40;;;1.60;;
69730;SDS011;56996;48.138;11.538;2022-11-20T08:45:28;4.90;;;1.60;;
69730;SDS011;56996;48.138;11.538;2022-11-20T08:48:03;6.00;;;1.80;;
69730;SDS011;56996;48.138;11.538;2022-11-20T08:50:31;5.40;;;1.80;;
69730;SDS011;56996;48.138;11.538;2022-11-20T08:53:06;5.70;;;1.60;;
69730;SDS011;56996;48.138;11.538;2022-11-20T08:55:33;6.10;;;1.70;;
69730;SDS011;56996;48.138;11.538;2022-11-20T08:58:08;6.10;;;2.10;;
69730;SDS011;56996;48.138;11.538;2022-11-20T09:00:35;7.50;;;1.70;;
69730;SDS011;56996;48.138;11.538;2022-11-20T09:03:02;5.10;;;1.40;;
69730;SDS011;56996;48.138;11.538;2022-11-20T09:05:29;5.30;;;1.70;;
69730;SDS011;56996;48.138;11.538;2022-11-20T09:07:57;5.80;;;1.60;;
69730;SDS011;56996;48.138;11.538;2022-11-20T09:10:25;4.50;;;1.50;;
69730;SDS011;56996;48.138;11.538;2022-11-20T09:12:53;6.90;;;1.40;;
69730;SDS011;56996;48.138;11.538;2022-11-20T09:15:22;6.20;;;1.50;;
69730;SDS011;56996;48.138;11.538;2022-11-20T09:17:53;5.90;;;1.40;;
69730;SDS011;56996;48.138;11.538;2022-11-20T09:20:37;3.80;;;1.20;;
69730;SDS011;56996;48.138;11.538;2022-11-20T09:23:04;6.90;;;2.70;;
69730;SDS011;56996;48.138;11.538;2022-11-20T09:25:31;5.50;;;1.90;;
69730;SDS011;56996;48.138;11.538;2022-11-20T09:27:58;5.10;;;1.20;;
69730;SDS011;56996;48.138;11.538;2022-11-20T09:30:26;5.70;;;1.70;;
69730;SDS011;56996;48.138;11.538;2022-11-20T09:32:53;5.80;;;1.20;;
69730;SDS011;56996;48.138;11.538;2022-11-20T09:35:20;5.50;;;1.50;;
69730;SDS011;56996;48.138;11.538;2022-11-20T09:37:47;5.80;;;1.40;;
69730;SDS011;56996;48.138;11.538;2022-11-20T09:40:23;4.60;;;1.10;;
69730;SDS011;56996;48.138;11.538;2022-11-20T09:42:58;5.20;;;1.20;;
69730;SDS011;56996;48.138;11.538;2022-11-20T09:51:47;3.80;;;1.00;;
69730;SDS011;56996;48.138;11.538;2022-11-20T09:54:18;4.60;;;1.20;;
69730;SDS011;56996;48.138;11.538;2022-11-20T09:56:51;3.80;;;1.00;;
69730;SDS011;56996;48.138;11.538;2022-11-20T09:59:35;5.20;;;1.30;;
69730;SDS011;56996;48.138;11.538;2022-11-20T10:05:22;4.40;;;1.20;;
69730;SDS011;56996;48.138;11.538;2022-11-20T10:08:15;3.40;;;0.80;;
69730;SDS011;56996;48.138;11.538;2022-11-20T10:10:46;4.20;;;1.10;;
69730;SDS011;56996;48.138;11.538;2022-11-20T10:25:34;4.20;;;1.20;;
69730;SDS011;56996;48.138;11.538;2022-11-20T10:31:00;3.50;;;0.90;;
69730;SDS011;56996;48.138;11.538;2022-11-20T10:33:43;4.50;;;1.10;;
69730;SDS011;56996;48.138;11.538;2022-11-20T10:36:40;5.00;;;1.00;;
69730;SDS011;56996;48.138;11.538;2022-11-20T10:39:42;3.70;;;1.10;;
69730;SDS011;56996;48.138;11.538;2022-11-20T10:42:17;3.40;;;0.90;;
69730;SDS011;56996;48.138;11.538;2022-11-20T10:44:58;5.00;;;0.90;;
69730;SDS011;56996;48.138;11.538;2022-11-20T10:47:32;4.10;;;1.10;;
69730;SDS011;56996;48.138;11.538;2022-11-20T10:50:08;4.90;;;1.10;;
69730;SDS011;56996;48.138;11.538;2022-11-20T10:53:04;5.00;;;1.00;;
69730;SDS011;56996;48.138;11.538;2022-11-20T10:56:09;3.60;;;1.10;;
69730;SDS011;56996;48.138;11.538;2022-11-20T11:01:47;3.60;;;0.90;;
69730;SDS011;56996;48.138;11.538;2022-11-20T11:04:28;4.80;;;1.00;;
69730;SDS011;56996;48.138;11.538;2022-11-20T11:10:16;5.60;;;1.20;;
69730;SDS011;56996;48.138;11.538;2022-11-20T11:12:46;3.20;;;0.80;;
69730;SDS011;56996;48.138;11.538;2022-11-20T11:15:28;4.30;;;1.00;;
69730;SDS011;56996;48.138;11.538;2022-11-20T11:18:10;4.70;;;0.80;;
69730;SDS011;56996;48.138;11.538;2022-11-20T11:20:37;3.50;;;1.00;;
69730;SDS011;56996;48.138;11.538;2022-11-20T11:23:05;3.10;;;0.90;;
69730;SDS011;56996;48.138;11.538;2022-11-20T11:25:57;4.20;;;0.90;;
69730;SDS011;56996;48.138;11.538;2022-11-20T11:28:26;3.50;;;0.70;;
69730;SDS011;56996;48.138;11.538;2022-11-20T11:30:54;2.80;;;0.70;;
69730;SDS011;56996;48.138;11.538;2022-11-20T11:33:24;4.00;;;0.80;;
69730;SDS011;56996;48.138;11.538;2022-11-20T11:35:54;3.30;;;0.80;;
69730;SDS011;56996;48.138;11.538;2022-11-20T11:38:40;6.70;;;2.70;;
69730;SDS011;56996;48.138;11.538;2022-11-20T11:41:15;8.30;;;2.70;;
69730;SDS011;56996;48.138;11.538;2022-11-20T11:47:45;4.10;;;1.10;;
69730;SDS011;56996;48.138;11.538;2022-11-20T11:50:16;2.60;;;0.60;;
69730;SDS011;56996;48.138;11.538;2022-11-20T11:55:53;3.00;;;0.90;;
69730;SDS011;56996;48.138;11.538;2022-11-20T11:58:50;4.00;;;1.10;;
69730;SDS011;56996;48.138;11.538;2022-11-20T12:06:45;3.80;;;0.90;;
69730;SDS011;56996;48.138;11.538;2022-11-20T12:09:18;3.70;;;1.00;;
69730;SDS011;56996;48.138;11.538;2022-11-20T12:11:54;2.60;;;0.90;;
69730;SDS011;56996;48.138;11.538;2022-11-20T12:17:02;4.00;;;1.00;;
69730;SDS011;56996;48.138;11.538;2022-11-20T12:19:30;3.50;;;0.80;;
69730;SDS011;56996;48.138;11.538;2022-11-20T12:25:20;3.30;;;0.90;;
69730;SDS011;56996;48.138;11.538;2022-11-20T12:27:58;2.50;;;0.70;;
69730;SDS011;56996;48.138;11.538;2022-11-20T12:30:32;4.00;;;1.10;;
69730;SDS011;56996;48.138;11.538;2022-11-20T12:41:50;4.20;;;1.20;;
69730;SDS011;56996;48.138;11.538;2022-11-20T12:50:53;3.80;;;0.90;;
69730;SDS011;56996;48.138;11.538;2022-11-20T13:02:33;4.50;;;1.10;;
69730;SDS011;56996;48.138;11.538;2022-11-20T13:05:19;4.70;;;1.20;;
69730;SDS011;56996;48.138;11.538;2022-11-20T13:07:48;3.80;;;1.00;;
69730;SDS011;56996;48.138;11.538;2022-11-20T13:10:25;3.40;;;0.80;;
69730;SDS011;56996;48.138;11.538;2022-11-20T13:16:38;3.30;;;0.80;;
69730;SDS011;56996;48.138;11.538;2022-11-20T13:19:15;3.80;;;1.00;;
69730;SDS011;56996;48.138;11.538;2022-11-20T13:21:45;4.60;;;1.30;;
69730;SDS011;56996;48.138;11.538;2022-11-20T13:29:36;3.70;;;1.00;;
69730;SDS011;56996;48.138;11.538;2022-11-20T13:32:17;4.80;;;1.30;;
69730;SDS011;56996;48.138;11.538;2022-11-20T13:35:02;5.10;;;1.60;;
69730;SDS011;56996;48.138;11.538;2022-11-20T13:47:55;5.00;;;1.30;;
69730;SDS011;56996;48.138;11.538;2022-11-20T13:50:44;4.90;;;1.10;;
69730;SDS011;56996;48.138;11.538;2022-11-20T13:53:46;4.00;;;1.00;;
69730;SDS011;56996;48.138;11.538;2022-11-20T13:56:31;4.10;;;1.00;;
69730;SDS011;56996;48.138;11.538;2022-11-20T14:02:00;5.00;;;1.20;;
69730;SDS011;56996;48.138;11.538;2022-11-20T14:04:33;4.80;;;1.20;;
69730;SDS011;56996;48.138;11.538;2022-11-20T14:07:05;4.50;;;1.20;;
69730;SDS011;56996;48.138;11.538;2022-11-20T14:09:33;3.60;;;1.20;;
69730;SDS011;56996;48.138;11.538;2022-11-20T14:12:02;5.00;;;1.30;;
69730;SDS011;56996;48.138;11.538;2022-11-20T14:14:32;4.90;;;1.10;;
69730;SDS011;56996;48.138;11.538;2022-11-20T14:19:34;4.80;;;1.40;;
69730;SDS011;56996;48.138;11.538;2022-11-20T14:22:24;6.60;;;1.30;;
69730;SDS011;56996;48.138;11.538;2022-11-20T14:27:40;4.10;;;1.10;;
69730;SDS011;56996;48.138;11.538;2022-11-20T14:30:17;4.40;;;1.30;;
69730;SDS011;56996;48.138;11.538;2022-11-20T14:32:47;3.40;;;1.00;;
69730;SDS011;56996;48.138;11.538;2022-11-20T14:35:30;3.90;;;1.10;;
69730;SDS011;56996;48.138;11.538;2022-11-20T14:38:01;4.40;;;1.10;;
69730;SDS011;56996;48.138;11.538;2022-11-20T14:40:34;4.20;;;1.00;;
69730;SDS011;56996;48.138;11.538;2022-11-20T14:43:26;4.20;;;1.10;;
69730;SDS011;56996;48.138;11.538;2022-11-20T14:46:05;4.20;;;1.00;;
69730;SDS011;56996;48.138;11.538;2022-11-20T14:48:38;3.10;;;0.80;;
69730;SDS011;56996;48.138;11.538;2022-11-20T14:51:32;2.20;;;0.60;;
69730;SDS011;56996;48.138;11.538;2022-11-20T14:56:36;4.40;;;0.90;;
69730;SDS011;56996;48.138;11.538;2022-11-20T14:59:03;3.90;;;0.70;;
69730;SDS011;56996;48.138;11.538;2022-11-20T15:01:32;3.90;;;0.70;;
69730;SDS011;56996;48.138;11.538;2022-11-20T15:04:19;3.30;;;0.70;;
69730;SDS011;56996;48.138;11.538;2022-11-20T15:06:53;3.70;;;0.70;;
69730;SDS011;56996;48.138;11.538;2022-11-20T15:09:21;5.10;;;0.80;;
69730;SDS011;56996;48.138;11.538;2022-11-20T15:11:59;5.20;;;1.00;;
69730;SDS011;56996;48.138;11.538;2022-11-20T15:14:29;3.30;;;0.70;;
69730;SDS011;56996;48.138;11.538;2022-11-20T15:16:56;3.50;;;0.80;;
69730;SDS011;56996;48.138;11.538;2022-11-20T15:19:25;3.50;;;0.60;;
69730;SDS011;56996;48.138;11.538;2022-11-20T15:21:52;3.50;;;0.70;;
69730;SDS011;56996;48.138;11.538;2022-11-20T15:24:19;3.10;;;0.80;;
69730;SDS011;56996;48.138;11.538;2022-11-20T15:26:47;3.40;;;0.80;;
69730;SDS011;56996;48.138;11.538;2022-11-20T15:29:15;20.40;;;4.50;;
69730;SDS011;56996;48.138;11.538;2022-11-20T15:31:47;8.50;;;1.90;;
69730;SDS011;56996;48.138;11.538;2022-11-20T15:34:15;4.10;;;0.90;;
69730;SDS011;56996;48.138;11.538;2022-11-20T15:36:42;2.70;;;0.80;;
69730;SDS011;56996;48.138;11.538;2022-11-20T15:39:10;4.80;;;1.10;;
69730;SDS011;56996;48.138;11.538;2022-11-20T15:41:38;3.70;;;0.90;;
69730;SDS011;56996;48.138;11.538;2022-11-20T15:44:05;3.60;;;0.80;;
69730;SDS011;56996;48.138;11.538;2022-11-20T15:46:35;3.60;;;0.80;;
69730;SDS011;56996;48.138;11.538;2022-11-20T15:49:15;3.40;;;0.90;;
69730;SDS011;56996;48.138;11.538;2022-11-20T15:51:48;5.00;;;1.10;;
69730;SDS011;56996;48.138;11.538;2022-11-20T15:54:18;3.90;;;0.80;;
69730;SDS011;56996;48.138;11.538;2022-11-20T15:56:50;4.10;;;1.10;;
69730;SDS011;56996;48.138;11.538;2022-11-20T15:59:19;4.10;;;0.90;;
69730;SDS011;56996;48.138;11.538;2022-11-20T16:01:46;4.60;;;0.90;;
69730;SDS011;56996;48.138;11.538;2022-11-20T16:04:15;3.80;;;1.00;;
69730;SDS011;56996;48.138;11.538;2022-11-20T16:06:43;3.80;;;0.90;;
69730;SDS011;56996;48.138;11.538;2022-11-20T16:09:09;4.90;;;1.20;;
69730;SDS011;56996;48.138;11.538;2022-11-20T16:11:36;3.90;;;1.10;;
69730;SDS011;56996;48.138;11.538;2022-11-20T16:14:04;5.60;;;1.50;;
69730;SDS011;56996;48.138;11.538;2022-11-20T16:16:51;5.20;;;1.80;;
69730;SDS011;56996;48.138;11.538;2022-11-20T16:19:18;6.40;;;1.90;;
69730;SDS011;56996;48.138;11.538;2022-11-20T16:21:45;5.50;;;1.60;;
69730;SDS011;56996;48.138;11.538;2022-11-20T16:24:13;5.30;;;1.80;;
69730;SDS011;56996;48.138;11.538;2022-11-20T16:26:40;6.60;;;1.70;;
69730;SDS011;56996;48.138;11.538;2022-11-20T16:29:07;4.80;;;1.40;;
69730;SDS011;56996;48.138;11.538;2022-11-20T16:31:35;5.20;;;1.70;;
69730;SDS011;56996;48.138;11.538;2022-11-20T16:34:04;5.00;;;1.50;;
69730;SDS011;56996;48.138;11.538;2022-11-20T16:36:41;6.00;;;1.80;;
69730;SDS011;56996;48.138;11.538;2022-11-20T16:39:12;6.30;;;1.90;;
69730;SDS011;56996;48.138;11.538;2022-11-20T16:41:44;6.80;;;1.80;;
69730;SDS011;56996;48.138;11.538;2022-11-20T16:44:11;7.00;;;2.60;;
69730;SDS011;56996;48.138;11.538;2022-11-20T16:46:38;6.70;;;2.20;;